createdAt,value
2019-06-26T00:00:22.806Z,23.92
2019-06-26T00:03:27.128Z,23.85
2019-06-26T00:06:31.095Z,23.83
2019-06-26T00:09:35.434Z,23.81
2019-06-26T00:12:39.516Z,23.79
2019-06-26T00:15:43.533Z,23.69
2019-06-26T00:18:48.068Z,23.64
2019-06-26T00:21:52.130Z,23.60
2019-06-26T00:24:56.725Z,23.54
2019-06-26T00:28:01.151Z,23.53
2019-06-26T00:31:05.211Z,23.50
2019-06-26T00:34:09.387Z,23.44
2019-06-26T00:37:13.711Z,23.41
2019-06-26T00:40:17.812Z,23.40
2019-06-26T00:43:21.773Z,23.37
2019-06-26T00:46:26.062Z,23.31
2019-06-26T00:49:30.089Z,23.27
2019-06-26T00:52:34.383Z,23.20
2019-06-26T00:55:38.725Z,23.15
2019-06-26T00:58:43.094Z,23.11
2019-06-26T01:01:47.341Z,23.08
2019-06-26T01:04:52.899Z,23.06
2019-06-26T01:07:57.105Z,23.05
2019-06-26T01:11:01.144Z,23.06
2019-06-26T01:14:05.372Z,23.04
2019-06-26T01:17:09.324Z,23.02
2019-06-26T01:20:13.818Z,22.96
2019-06-26T01:23:18.023Z,22.92
2019-06-26T01:26:22.163Z,22.86
2019-06-26T01:29:26.169Z,22.86
2019-06-26T01:32:30.498Z,22.86
2019-06-26T01:35:34.717Z,22.83
2019-06-26T01:38:39.038Z,22.82
2019-06-26T01:41:43.074Z,22.82
2019-06-26T01:44:47.028Z,22.80
2019-06-26T01:47:51.486Z,22.78
2019-06-26T01:50:55.408Z,22.78
2019-06-26T01:53:59.426Z,22.78
2019-06-26T01:57:03.312Z,22.75
2019-06-26T02:00:08.156Z,22.71
2019-06-26T02:03:12.493Z,22.68
2019-06-26T02:06:16.528Z,22.64
2019-06-26T02:09:21.038Z,22.58
2019-06-26T02:12:25.467Z,22.56
2019-06-26T02:15:29.421Z,22.51
2019-06-26T02:18:44.148Z,22.54
2019-06-26T02:21:48.177Z,22.48
2019-06-26T02:24:52.136Z,22.44
2019-06-26T02:27:56.508Z,22.42
2019-06-26T02:31:00.861Z,22.39
2019-06-26T02:34:04.924Z,22.36
2019-06-26T02:37:08.970Z,22.33
2019-06-26T02:40:14.807Z,22.32
2019-06-26T02:43:19.240Z,22.28
2019-06-26T02:46:23.458Z,22.23
2019-06-26T02:49:27.678Z,22.19
2019-06-26T02:52:31.634Z,22.19
2019-06-26T02:55:36.283Z,22.16
2019-06-26T02:58:40.655Z,22.11
2019-06-26T03:01:44.971Z,22.11
2019-06-26T03:04:49.600Z,22.07
2019-06-26T03:07:53.954Z,22.07
2019-06-26T03:10:57.901Z,22.04
2019-06-26T03:14:02.469Z,22.03
2019-06-26T03:17:06.416Z,22.00
2019-06-26T03:20:10.864Z,21.99
2019-06-26T03:23:14.849Z,21.98
2019-06-26T03:26:18.925Z,21.98
2019-06-26T03:29:22.901Z,22.01
2019-06-26T03:32:26.951Z,22.01
2019-06-26T03:35:31.531Z,22.00
2019-06-26T03:38:35.526Z,22.00
2019-06-26T03:41:39.791Z,21.99
2019-06-26T03:44:44.197Z,21.99
2019-06-26T03:47:48.204Z,22.03
2019-06-26T03:50:52.230Z,22.07
2019-06-26T03:53:56.561Z,22.11
2019-06-26T03:57:00.573Z,22.14
2019-06-26T04:00:28.304Z,22.20
2019-06-26T04:03:32.343Z,22.26
2019-06-26T04:06:36.376Z,22.31
2019-06-26T04:09:40.560Z,22.36
2019-06-26T04:12:44.503Z,22.40
2019-06-26T04:15:50.908Z,22.40
2019-06-26T04:18:54.847Z,22.45
2019-06-26T04:21:58.870Z,22.54
2019-06-26T04:25:02.881Z,22.64
2019-06-26T04:28:06.926Z,22.75
2019-06-26T04:31:10.997Z,22.81
2019-06-26T04:34:15.212Z,22.87
2019-06-26T04:37:19.414Z,22.95
2019-06-26T04:40:23.441Z,23.05
2019-06-26T04:43:27.393Z,23.13
2019-06-26T04:46:31.605Z,23.24
2019-06-26T04:49:35.929Z,23.36
2019-06-26T04:52:39.945Z,23.53
2019-06-26T04:55:43.988Z,23.69
2019-06-26T04:58:47.925Z,24.62
2019-06-26T05:01:52.301Z,25.66
2019-06-26T05:04:56.616Z,26.55
2019-06-26T05:08:00.930Z,27.26
2019-06-26T05:11:05.365Z,27.89
2019-06-26T05:14:09.386Z,28.53
2019-06-26T05:17:13.466Z,28.97
2019-06-26T05:20:18.159Z,29.23
2019-06-26T05:23:22.751Z,29.55
2019-06-26T05:26:27.802Z,29.89
2019-06-26T05:29:32.061Z,29.95
2019-06-26T05:32:36.796Z,30.29
2019-06-26T05:35:40.910Z,30.65
2019-06-26T05:38:45.498Z,30.94
2019-06-26T05:41:49.531Z,31.09
2019-06-26T05:44:55.696Z,31.26
2019-06-26T05:48:00.109Z,31.25
2019-06-26T05:51:04.150Z,30.88
2019-06-26T05:54:08.444Z,31.13
2019-06-26T05:57:12.802Z,31.39
2019-06-26T06:00:18.635Z,31.99
2019-06-26T06:03:22.955Z,32.21
2019-06-26T06:06:40.684Z,32.64
2019-06-26T06:09:33.238Z,32.47
2019-06-26T06:12:37.250Z,31.73
2019-06-26T06:15:41.161Z,31.96
2019-06-26T06:18:45.280Z,32.08
2019-06-26T06:21:49.153Z,32.62
2019-06-26T06:24:53.084Z,33.13
2019-06-26T06:27:57.418Z,33.03
2019-06-26T06:31:01.349Z,32.77
2019-06-26T06:34:05.564Z,33.23
2019-06-26T06:37:09.856Z,33.80
2019-06-26T06:40:14.315Z,34.09
2019-06-26T06:43:18.735Z,34.24
2019-06-26T06:46:23.796Z,34.52
2019-06-26T06:49:28.319Z,34.49
2019-06-26T06:52:32.220Z,34.86
2019-06-26T06:55:36.219Z,35.09
2019-06-26T06:58:40.080Z,35.14
2019-06-26T07:01:44.421Z,35.20
2019-06-26T07:04:48.693Z,35.26
2019-06-26T07:07:53.010Z,35.24
2019-06-26T07:10:56.966Z,35.41
2019-06-26T07:14:01.067Z,35.55
2019-06-26T07:17:19.523Z,35.36
2019-06-26T07:20:12.332Z,35.33
2019-06-26T07:23:16.272Z,35.70
2019-06-26T07:26:20.586Z,35.93
2019-06-26T07:29:25.759Z,36.09
2019-06-26T07:32:29.946Z,36.19
2019-06-26T07:35:34.093Z,35.95
2019-06-26T07:38:38.389Z,36.09
2019-06-26T07:41:42.402Z,36.33
2019-06-26T07:44:46.260Z,36.36
2019-06-26T07:47:50.516Z,36.22
2019-06-26T07:50:54.892Z,36.37
2019-06-26T07:53:58.896Z,36.56
2019-06-26T07:57:03.091Z,36.73
2019-06-26T08:00:08.777Z,36.73
2019-06-26T08:03:12.972Z,36.71
2019-06-26T08:06:17.192Z,36.53
2019-06-26T08:09:21.411Z,36.44
2019-06-26T08:12:26.357Z,36.28
2019-06-26T08:15:31.237Z,36.27
2019-06-26T08:18:35.505Z,36.42
2019-06-26T08:21:39.809Z,36.32
2019-06-26T08:24:44.296Z,36.29
2019-06-26T08:27:48.323Z,35.19
2019-06-26T08:30:52.863Z,34.10
2019-06-26T08:33:57.638Z,33.45
2019-06-26T08:37:01.839Z,33.11
2019-06-26T08:40:06.750Z,32.90
2019-06-26T08:43:11.261Z,32.65
2019-06-26T08:46:15.758Z,32.55
2019-06-26T08:49:25.648Z,32.51
2019-06-26T08:52:26.135Z,32.46
2019-06-26T08:55:30.107Z,32.43
2019-06-26T08:58:34.569Z,32.48
2019-06-26T09:01:38.429Z,32.50
2019-06-26T09:04:42.364Z,32.53
2019-06-26T09:07:46.523Z,32.64
2019-06-26T09:10:50.779Z,32.70
2019-06-26T09:13:54.625Z,32.71
2019-06-26T09:16:58.741Z,32.72
2019-06-26T09:20:03.602Z,32.78
2019-06-26T09:23:08.236Z,32.88
2019-06-26T09:26:12.450Z,32.96
2019-06-26T09:29:16.406Z,33.11
2019-06-26T09:32:21.749Z,33.21
2019-06-26T09:35:25.737Z,33.29
2019-06-26T09:38:29.660Z,33.38
2019-06-26T09:41:33.599Z,33.45
2019-06-26T09:44:37.916Z,33.46
2019-06-26T09:47:42.099Z,33.53
2019-06-26T09:50:46.477Z,33.61
2019-06-26T09:53:50.405Z,33.59
2019-06-26T09:56:54.550Z,33.70
2019-06-26T09:59:58.499Z,33.81
2019-06-26T10:03:02.789Z,33.89
2019-06-26T10:06:07.122Z,33.99
2019-06-26T10:09:11.757Z,34.12
2019-06-26T10:12:16.038Z,34.27
2019-06-26T10:15:20.886Z,34.30
2019-06-26T10:18:25.125Z,34.33
2019-06-26T10:21:29.355Z,34.42
2019-06-26T10:24:33.725Z,34.51
2019-06-26T10:27:38.101Z,34.58
2019-06-26T10:30:42.409Z,34.63
2019-06-26T10:33:46.417Z,34.72
2019-06-26T10:36:51.203Z,34.78
2019-06-26T10:39:55.772Z,34.82
2019-06-26T10:42:59.795Z,35.00
2019-06-26T10:46:03.849Z,35.10
2019-06-26T10:49:08.244Z,35.18
2019-06-26T10:52:12.181Z,35.28
2019-06-26T10:55:16.300Z,35.30
2019-06-26T10:58:20.594Z,35.30
2019-06-26T11:01:24.578Z,35.25
2019-06-26T11:04:28.590Z,35.28
2019-06-26T11:07:36.314Z,35.30
2019-06-26T11:10:39.385Z,35.42
2019-06-26T11:13:43.855Z,35.44
2019-06-26T11:16:48.170Z,35.57
2019-06-26T11:19:55.357Z,35.56
2019-06-26T11:22:57.811Z,35.58
2019-06-26T11:26:01.848Z,35.70
2019-06-26T11:29:06.186Z,35.73
2019-06-26T11:32:10.197Z,35.83
2019-06-26T11:35:14.722Z,35.81
2019-06-26T11:38:18.671Z,35.89
2019-06-26T11:41:22.577Z,35.86
2019-06-26T11:44:26.869Z,35.82
2019-06-26T11:47:30.888Z,35.76
2019-06-26T11:50:34.887Z,35.79
2019-06-26T11:53:39.529Z,35.98
2019-06-26T11:56:43.960Z,36.08
2019-06-26T11:59:48.313Z,36.14
2019-06-26T12:02:52.641Z,36.25
2019-06-26T12:06:10.700Z,36.36
2019-06-26T12:09:03.498Z,36.41
2019-06-26T12:12:07.531Z,36.42
2019-06-26T12:15:11.739Z,36.40
2019-06-26T12:18:15.831Z,36.38
2019-06-26T12:21:20.161Z,36.52
2019-06-26T12:24:26.545Z,36.56
2019-06-26T12:27:30.282Z,36.63
2019-06-26T12:30:34.290Z,36.62
2019-06-26T12:33:38.217Z,36.65
2019-06-26T12:36:42.319Z,36.61
2019-06-26T12:39:46.522Z,36.56
2019-06-26T12:42:54.509Z,36.63
2019-06-26T12:45:57.775Z,36.68
2019-06-26T12:49:02.185Z,36.79
2019-06-26T12:52:06.202Z,36.92
2019-06-26T12:55:10.410Z,37.05
2019-06-26T12:58:19.509Z,37.04
2019-06-26T13:01:20.569Z,37.10
2019-06-26T13:04:24.503Z,37.10
2019-06-26T13:07:28.734Z,37.15
2019-06-26T13:10:48.498Z,37.07
2019-06-26T13:13:38.908Z,37.11
2019-06-26T13:16:42.780Z,37.22
2019-06-26T13:19:46.995Z,37.35
2019-06-26T13:22:51.374Z,37.24
2019-06-26T13:25:55.789Z,37.35
2019-06-26T13:28:59.985Z,37.47
2019-06-26T13:32:04.309Z,37.44
2019-06-26T13:35:08.843Z,37.55
2019-06-26T13:38:13.964Z,37.47
2019-06-26T13:41:17.833Z,37.56
2019-06-26T13:44:21.697Z,37.63
2019-06-26T13:47:25.572Z,37.57
2019-06-26T13:50:29.574Z,37.52
2019-06-26T13:53:33.466Z,37.55
2019-06-26T13:56:37.825Z,37.63
2019-06-26T13:59:41.993Z,37.67
2019-06-26T14:02:45.928Z,37.78
2019-06-26T14:05:50.429Z,37.81
2019-06-26T14:08:54.365Z,37.88
2019-06-26T14:11:58.870Z,37.89
2019-06-26T14:15:02.746Z,37.88
2019-06-26T14:18:07.105Z,37.75
2019-06-26T14:21:24.578Z,37.76
2019-06-26T14:24:17.400Z,37.77
2019-06-26T14:27:21.403Z,37.76
2019-06-26T14:30:27.837Z,37.61
2019-06-26T14:33:31.788Z,37.65
2019-06-26T14:36:36.743Z,37.72
2019-06-26T14:39:41.216Z,37.71
2019-06-26T14:42:45.158Z,37.68
2019-06-26T14:45:49.441Z,37.68
2019-06-26T14:48:53.400Z,37.75
2019-06-26T14:51:57.333Z,37.84
2019-06-26T14:55:01.535Z,37.85
2019-06-26T14:58:06.166Z,37.82
2019-06-26T15:01:10.694Z,37.79
2019-06-26T15:04:15.226Z,37.69
2019-06-26T15:07:19.343Z,37.74
2019-06-26T15:10:23.341Z,37.80
2019-06-26T15:13:27.363Z,37.77
2019-06-26T15:16:31.640Z,37.80
2019-06-26T15:19:35.911Z,37.89
2019-06-26T15:22:40.137Z,37.91
2019-06-26T15:25:45.161Z,37.80
2019-06-26T15:28:49.538Z,37.74
2019-06-26T15:31:54.128Z,37.55
2019-06-26T15:34:58.781Z,37.54
2019-06-26T15:38:03.650Z,37.63
2019-06-26T15:41:07.915Z,37.66
2019-06-26T15:44:12.124Z,37.69
2019-06-26T15:47:15.990Z,37.68
2019-06-26T15:50:20.414Z,37.67
2019-06-26T15:53:24.656Z,37.64
2019-06-26T15:56:29.247Z,37.56
2019-06-26T15:59:33.470Z,37.57
2019-06-26T16:02:37.823Z,37.61
2019-06-26T16:05:41.809Z,37.59
2019-06-26T16:08:45.844Z,37.50
2019-06-26T16:11:50.385Z,37.47
2019-06-26T16:14:55.505Z,37.48
2019-06-26T16:18:05.225Z,37.28
2019-06-26T16:21:09.817Z,37.01
2019-06-26T16:24:13.765Z,36.99
2019-06-26T16:27:17.850Z,37.06
2019-06-26T16:30:22.133Z,37.04
2019-06-26T16:33:26.617Z,36.91
2019-06-26T16:36:30.738Z,36.84
2019-06-26T16:39:35.063Z,36.83
2019-06-26T16:42:39.873Z,36.85
2019-06-26T16:45:43.967Z,36.53
2019-06-26T16:48:48.587Z,36.26
2019-06-26T16:51:52.405Z,36.07
2019-06-26T16:54:56.716Z,36.02
2019-06-26T16:58:01.533Z,35.97
2019-06-26T17:01:06.311Z,35.91
2019-06-26T17:04:10.382Z,35.86
2019-06-26T17:07:14.601Z,35.72
2019-06-26T17:10:19.131Z,35.56
2019-06-26T17:13:23.798Z,35.37
2019-06-26T17:16:28.573Z,35.29
2019-06-26T17:19:32.608Z,35.24
2019-06-26T17:22:37.084Z,35.17
2019-06-26T17:25:41.233Z,35.13
2019-06-26T17:28:45.445Z,35.04
2019-06-26T17:31:50.130Z,35.03
2019-06-26T17:34:54.449Z,35.01
2019-06-26T17:37:59.183Z,34.87
2019-06-26T17:41:03.666Z,34.76
2019-06-26T17:44:07.677Z,34.62
2019-06-26T17:47:11.958Z,34.52
2019-06-26T17:50:16.529Z,34.49
2019-06-26T17:53:22.139Z,34.46
2019-06-26T17:56:26.462Z,34.44
2019-06-26T17:59:30.405Z,34.36
2019-06-26T18:02:35.153Z,34.23
2019-06-26T18:05:39.374Z,34.13
2019-06-26T18:08:44.001Z,33.98
2019-06-26T18:11:48.119Z,33.87
2019-06-26T18:14:52.414Z,33.83
2019-06-26T18:17:56.547Z,33.83
2019-06-26T18:21:00.795Z,33.66
2019-06-26T18:24:05.105Z,33.56
2019-06-26T18:27:09.038Z,33.37
2019-06-26T18:30:13.704Z,33.31
2019-06-26T18:33:17.993Z,33.24
2019-06-26T18:36:21.944Z,33.18
2019-06-26T18:39:26.123Z,33.18
2019-06-26T18:42:29.976Z,33.12
2019-06-26T18:45:34.340Z,33.03
2019-06-26T18:48:38.690Z,32.92
2019-06-26T18:51:42.564Z,32.88
2019-06-26T18:54:47.310Z,32.82
2019-06-26T18:57:51.328Z,32.74
2019-06-26T19:00:55.951Z,32.65
2019-06-26T19:04:00.580Z,32.53
2019-06-26T19:07:04.638Z,32.35
2019-06-26T19:10:09.820Z,32.23
2019-06-26T19:13:14.675Z,32.14
2019-06-26T19:16:19.204Z,32.01
2019-06-26T19:19:23.738Z,31.88
2019-06-26T19:22:27.787Z,31.77
2019-06-26T19:25:31.756Z,31.65
2019-06-26T19:28:35.699Z,31.52
2019-06-26T19:31:39.905Z,31.36
2019-06-26T19:34:44.338Z,31.24
2019-06-26T19:37:48.401Z,31.14
2019-06-26T19:40:52.765Z,31.03
2019-06-26T19:43:57.290Z,30.97
2019-06-26T19:47:01.602Z,30.89
2019-06-26T19:50:06.601Z,30.75
2019-06-26T19:53:11.181Z,30.63
2019-06-26T19:56:15.811Z,30.48
2019-06-26T19:59:20.030Z,30.38
2019-06-26T20:02:24.668Z,30.28
2019-06-26T20:05:29.025Z,30.19
2019-06-26T20:08:33.266Z,30.11
2019-06-26T20:11:37.210Z,30.02
2019-06-26T20:14:41.059Z,29.97
2019-06-26T20:17:45.376Z,29.86
2019-06-26T20:20:50.008Z,29.79
2019-06-26T20:23:53.867Z,29.74
2019-06-26T20:26:58.322Z,29.69
2019-06-26T20:30:02.641Z,29.65
2019-06-26T20:33:06.577Z,29.57
2019-06-26T20:36:11.185Z,29.50
2019-06-26T20:39:15.464Z,29.44
2019-06-26T20:42:20.038Z,29.40
2019-06-26T20:45:24.412Z,29.37
2019-06-26T20:48:29.539Z,29.34
2019-06-26T20:51:33.470Z,29.34
2019-06-26T20:54:37.743Z,29.23
2019-06-26T20:57:41.956Z,29.16
2019-06-26T21:00:46.590Z,29.14
2019-06-26T21:03:50.809Z,29.07
2019-06-26T21:06:54.750Z,29.02
2019-06-26T21:09:58.704Z,28.96
2019-06-26T21:13:02.563Z,28.87
2019-06-26T21:16:06.874Z,28.78
2019-06-26T21:19:10.825Z,28.69
2019-06-26T21:22:14.846Z,28.61
2019-06-26T21:25:19.856Z,28.54
2019-06-26T21:28:24.280Z,28.58
2019-06-26T21:31:28.598Z,28.59
2019-06-26T21:34:33.366Z,28.59
2019-06-26T21:37:37.673Z,28.67
2019-06-26T21:40:42.167Z,28.75
2019-06-26T21:43:46.784Z,28.82
2019-06-26T21:46:50.754Z,28.86
2019-06-26T21:49:54.930Z,28.72
2019-06-26T21:52:59.254Z,28.62
2019-06-26T21:56:03.248Z,28.58
2019-06-26T21:59:07.541Z,28.56
2019-06-26T22:02:12.158Z,28.50
2019-06-26T22:05:16.693Z,28.47
2019-06-26T22:08:20.631Z,28.44
2019-06-26T22:11:24.620Z,28.39
2019-06-26T22:14:29.511Z,28.19
2019-06-26T22:17:34.057Z,28.11
2019-06-26T22:20:37.984Z,28.05
2019-06-26T22:23:41.979Z,28.14
2019-06-26T22:26:46.717Z,28.12
2019-06-26T22:29:51.129Z,28.16
2019-06-26T22:32:55.373Z,28.11
2019-06-26T22:35:59.497Z,28.00
2019-06-26T22:39:03.997Z,27.90
2019-06-26T22:42:08.271Z,27.79
2019-06-26T22:45:13.417Z,27.87
2019-06-26T22:48:17.369Z,27.91
2019-06-26T22:51:21.901Z,28.00
2019-06-26T22:54:26.126Z,28.12
2019-06-26T22:57:30.347Z,28.10
2019-06-26T23:00:34.326Z,28.01
2019-06-26T23:03:38.225Z,27.91
2019-06-26T23:06:42.712Z,27.76
2019-06-26T23:09:47.088Z,27.62
2019-06-26T23:12:51.474Z,27.53
2019-06-26T23:15:56.427Z,27.44
2019-06-26T23:19:00.401Z,27.40
2019-06-26T23:22:05.130Z,27.35
2019-06-26T23:25:09.448Z,27.38
2019-06-26T23:28:13.772Z,27.33
2019-06-26T23:31:18.127Z,27.28
2019-06-26T23:34:22.631Z,27.19
2019-06-26T23:37:27.254Z,27.05
2019-06-26T23:40:31.472Z,26.91
2019-06-26T23:43:35.763Z,26.87
2019-06-26T23:46:39.628Z,27.06
2019-06-26T23:49:44.136Z,27.07
2019-06-26T23:52:48.353Z,27.04
2019-06-26T23:55:52.706Z,27.04
2019-06-26T23:58:57.069Z,26.94
